Perrysburg, Ohio
Current Conditions -  °F | °C
As of 5:53 PM on Wednesday 22 Oct 2014 (Local Time) from KTDZ Reporting Station
Few Clouds Few Clouds  
Wind Chill: 54°   Ceiling: Unl
Heat Index: 54°   Visibility: 10mi
Dew Point: 40°   Wind: 3mph
Humidity: 59%   Direction: 320°NW
Pressure: 30.28"   Gusts: NA
Location:  41.56°N, 83.63°W
Report Text: KTDZ 222153Z AUTO 32003KT 10SM FEW034 12/04 A3028 RMK AO2 SLP256 T01220044 TSNO
Loading
Personal Weather Stations






























Interactive Weather Map
Tropical Storm Tracking
New forecast layout! Learn more

10-Day Weather Forecast

Advertisements
Track Severe Weather on mobile